Time;durP1;ratioP1;P1;durP2;ratioP2;P2;SDS_P1;SDS_P2;PMS_P1;PMS_P2;Temp;Humidity;BMP_temperature;BMP_pressure;BME280_temperature;BME280_humidity;BME280_pressure;Samples;Min_cycle;Max_cycle;Signal;HPM_P1;HPM_P2
2023/10/13 00:00:36;;;;;;;64.35;33.33;;;14.50;99.90;;;;;;4962534;28;19949;-70
2023/10/13 00:03:05;;;;;;;62.88;31.90;;;14.50;99.90;;;;;;4962949;28;20039;-73
2023/10/13 00:05:32;;;;;;;60.90;30.08;;;14.60;99.90;;;;;;4960468;28;20061;-69
2023/10/13 00:08:02;;;;;;;56.10;29.30;;;14.50;99.90;;;;;;4957134;28;20062;-71
2023/10/13 00:10:33;;;;;;;62.15;30.10;;;14.60;99.90;;;;;;4961728;28;20042;-70
2023/10/13 00:15:40;;;;;;;63.95;32.92;;;14.70;99.90;;;;;;4960743;28;20455;-70
2023/10/13 00:18:12;;;;;;;60.15;31.73;;;14.70;99.90;;;;;;4944953;28;20054;-70
2023/10/13 00:20:48;;;;;;;64.53;32.38;;;14.80;99.90;;;;;;4944503;28;20054;-70
2023/10/13 00:23:15;;;;;;;65.88;31.15;;;14.80;99.90;;;;;;4960072;28;20058;-72
2023/10/13 00:25:49;;;;;;;62.22;31.73;;;14.90;99.90;;;;;;4943050;28;20050;-70
2023/10/13 00:28:24;;;;;;;61.58;31.63;;;14.90;99.90;;;;;;4960102;28;20418;-70
2023/10/13 00:30:52;;;;;;;;;;;14.90;99.90;;;;;;4948040;28;20075;-70
2023/10/13 00:33:22;;;;;;;52.28;28.20;;;15.00;99.90;;;;;;4966820;28;19929;-70
2023/10/13 00:35:51;;;;;;;50.15;28.75;;;15.00;99.90;;;;;;4966330;28;20038;-71
2023/10/13 00:38:18;;;;;;;54.47;30.35;;;15.00;99.90;;;;;;4944930;29;20059;-69
2023/10/13 00:40:51;;;;;;;53.35;28.58;;;15.00;99.90;;;;;;4968472;28;20038;-70
2023/10/13 00:45:57;;;;;;;60.90;30.48;;;15.10;99.90;;;;;;4963322;28;20058;-69
2023/10/13 00:48:32;;;;;;;55.42;30.08;;;15.20;99.90;;;;;;4938073;29;20058;-71
2023/10/13 00:51:02;;;;;;;;;;;15.20;99.90;;;;;;4960616;28;20044;-69
2023/10/13 00:53:30;;;;;;;62.72;29.90;;;15.20;99.90;;;;;;4955475;28;19949;-69
2023/10/13 00:55:56;;;;;;;51.65;28.40;;;15.20;99.90;;;;;;4962439;28;20540;-68
2023/10/13 00:58:22;;;;;;;53.47;28.67;;;15.30;99.90;;;;;;4947647;28;20043;-68
2023/10/13 01:00:55;;;;;;;62.25;28.35;;;15.40;99.90;;;;;;4948666;28;20055;-70
2023/10/13 01:03:25;;;;;;;58.67;27.92;;;15.40;99.90;;;;;;4947436;28;20101;-70
2023/10/13 01:05:57;;;;;;;56.30;28.77;;;15.50;99.90;;;;;;4962907;28;20058;-70
2023/10/13 01:08:35;;;;;;;49.55;26.17;;;15.50;99.90;;;;;;4945838;28;20051;-71
2023/10/13 01:11:01;;;;;;;47.28;27.10;;;15.50;99.90;;;;;;4948576;28;20046;-69
2023/10/13 01:13:27;;;;;;;52.38;26.95;;;15.60;99.90;;;;;;4965253;28;20046;-69
2023/10/13 01:15:53;;;;;;;47.88;26.08;;;15.60;99.90;;;;;;4962604;28;20051;-70
2023/10/13 01:18:19;;;;;;;48.90;25.55;;;15.70;99.90;;;;;;4962756;28;20068;-70
2023/10/13 01:20:47;;;;;;;52.20;25.30;;;15.70;99.90;;;;;;4945993;28;20058;-72
2023/10/13 01:23:18;;;;;;;45.38;23.55;;;15.70;99.90;;;;;;4962193;28;20155;-68
2023/10/13 01:25:45;;;;;;;43.85;23.85;;;15.80;99.90;;;;;;4945857;28;20055;-69
2023/10/13 01:28:15;;;;;;;35.38;21.33;;;15.80;99.90;;;;;;4965162;28;20059;-69
2023/10/13 01:30:50;;;;;;;45.60;23.67;;;15.80;99.90;;;;;;4965251;28;20053;-69
2023/10/13 01:33:27;;;;;;;48.45;21.63;;;15.90;99.90;;;;;;4962833;28;20409;-70
2023/10/13 01:35:55;;;;;;;42.83;22.08;;;15.80;99.90;;;;;;4963155;28;20039;-69
2023/10/13 01:38:20;;;;;;;40.97;21.00;;;15.90;99.90;;;;;;4948160;28;20050;-71
2023/10/13 01:40:51;;;;;;;32.80;19.90;;;15.90;99.90;;;;;;4965094;28;20410;-70
2023/10/13 01:43:17;;;;;;;36.53;19.92;;;16.00;99.90;;;;;;4954386;28;20130;-70
2023/10/13 01:45:47;;;;;;;39.17;19.70;;;16.00;99.90;;;;;;4962398;28;20043;-69
2023/10/13 01:48:16;;;;;;;35.53;18.38;;;16.10;99.90;;;;;;4962424;28;20043;-69
2023/10/13 01:50:42;;;;;;;36.15;18.13;;;16.00;99.90;;;;;;4962363;28;20043;-69
2023/10/13 01:53:11;;;;;;;33.55;17.65;;;16.10;99.90;;;;;;4962600;28;20066;-70
2023/10/13 01:55:44;;;;;;;29.08;17.50;;;16.10;99.90;;;;;;4947322;28;20042;-71
2023/10/13 01:58:15;;;;;;;32.22;17.45;;;16.10;99.90;;;;;;4964441;28;20540;-69
2023/10/13 02:00:42;;;;;;;36.53;16.58;;;16.10;99.90;;;;;;4962037;28;20055;-68
2023/10/13 02:03:15;;;;;;;25.80;15.38;;;16.10;99.90;;;;;;4944496;29;20487;-69
2023/10/13 02:05:48;;;;;;;33.25;15.55;;;16.10;99.90;;;;;;4960035;28;20499;-69
2023/10/13 02:08:24;;;;;;;23.38;14.65;;;16.20;99.90;;;;;;4962044;28;20051;-70
2023/10/13 02:10:51;;;;;;;27.38;15.23;;;16.20;99.90;;;;;;4954927;28;20447;-70
2023/10/13 02:13:20;;;;;;;28.70;15.57;;;16.10;99.90;;;;;;4961628;28;20058;-69
2023/10/13 02:15:47;;;;;;;28.83;14.73;;;16.10;99.90;;;;;;4967091;28;20051;-69
2023/10/13 02:18:26;;;;;;;27.85;14.98;;;16.10;99.90;;;;;;4961831;28;20051;-69
2023/10/13 02:20:56;;;;;;;28.35;15.07;;;16.20;99.90;;;;;;4954052;28;20122;-69
2023/10/13 02:23:29;;;;;;;27.15;15.52;;;16.20;99.90;;;;;;4961487;28;20175;-69
2023/10/13 02:26:01;;;;;;;28.95;16.48;;;16.20;99.90;;;;;;4964312;28;20140;-69
2023/10/13 02:28:33;;;;;;;26.42;15.32;;;16.20;99.90;;;;;;4964296;28;20077;-72
2023/10/13 02:31:03;;;;;;;22.38;14.10;;;16.20;99.90;;;;;;4941419;28;20046;-69
2023/10/13 02:33:29;;;;;;;23.40;14.75;;;16.20;99.90;;;;;;4946943;28;20137;-68
2023/10/13 02:36:04;;;;;;;25.75;13.50;;;16.10;99.90;;;;;;4963501;28;20435;-68
2023/10/13 02:41:26;;;;;;;26.42;14.23;;;16.20;99.90;;;;;;4963906;28;20130;-72
2023/10/13 02:43:53;;;;;;;24.92;16.02;;;16.20;99.90;;;;;;4963762;28;20054;-72
2023/10/13 02:46:21;;;;;;;27.15;17.55;;;16.20;99.90;;;;;;4935991;29;20118;-70
2023/10/13 02:48:52;;;;;;;27.05;15.88;;;16.20;99.90;;;;;;4961033;28;20051;-71
2023/10/13 02:51:28;;;;;;;30.05;17.70;;;16.30;99.90;;;;;;4946684;28;20035;-70
2023/10/13 02:54:02;;;;;;;38.92;19.85;;;16.20;99.90;;;;;;4960699;28;20101;-70
2023/10/13 02:56:28;;;;;;;34.70;21.08;;;16.20;99.90;;;;;;4953198;28;20117;-71
2023/10/13 02:58:56;;;;;;;38.38;21.63;;;16.30;99.90;;;;;;4943621;29;20047;-70
2023/10/13 03:01:27;;;;;;;33.33;21.30;;;16.20;99.90;;;;;;4962494;28;20051;-70
2023/10/13 03:03:58;;;;;;;39.88;23.08;;;16.20;99.90;;;;;;4963554;28;20047;-72
2023/10/13 03:06:32;;;;;;;40.17;21.63;;;16.30;99.90;;;;;;4944717;28;20058;-71
2023/10/13 03:09:14;;;;;;;44.80;22.60;;;16.30;99.90;;;;;;4960517;28;20130;-71
2023/10/13 03:11:48;;;;;;;37.78;22.10;;;16.40;99.90;;;;;;4963322;28;20034;-70
2023/10/13 03:14:25;;;;;;;39.30;22.38;;;16.40;99.90;;;;;;4945834;28;20046;-70
2023/10/13 03:17:05;;;;;;;45.15;23.75;;;16.30;99.90;;;;;;4949892;28;20053;-69
2023/10/13 03:19:38;;;;;;;40.65;23.27;;;16.40;99.90;;;;;;4960507;28;20078;-68
2023/10/13 03:22:12;;;;;;;35.38;21.88;;;16.30;99.90;;;;;;4942191;29;20051;-70
2023/10/13 03:24:45;;;;;;;29.08;19.70;;;16.40;99.90;;;;;;4961219;28;20047;-69
2023/10/13 03:27:11;;;;;;;31.45;20.00;;;16.40;99.90;;;;;;4946180;28;20055;-72
2023/10/13 03:29:42;;;;;;;31.23;16.38;;;16.40;99.90;;;;;;4945787;28;20058;-69
2023/10/13 03:32:16;;;;;;;25.85;14.57;;;16.40;99.90;;;;;;4940717;28;20156;-69
2023/10/13 03:35:11;;;;;;;24.10;13.60;;;16.30;99.90;;;;;;4960812;28;20047;-69
2023/10/13 03:37:39;;;;;;;18.58;12.88;;;16.30;99.90;;;;;;4956553;28;20090;-69
2023/10/13 03:40:35;;;;;;;19.25;12.52;;;16.40;99.90;;;;;;4962870;28;20059;-70
2023/10/13 03:43:09;;;;;;;19.60;13.10;;;16.30;99.90;;;;;;4962299;28;20113;-69
2023/10/13 03:45:39;;;;;;;22.27;12.85;;;16.30;99.90;;;;;;4942778;29;20078;-68
2023/10/13 03:48:28;;;;;;;19.60;12.38;;;16.40;99.90;;;;;;4961554;28;20055;-70
2023/10/13 03:51:08;;;;;;;18.38;13.38;;;16.40;99.90;;;;;;4963556;28;20050;-67
2023/10/13 03:53:35;;;;;;;20.58;12.35;;;16.30;99.90;;;;;;4948451;29;20051;-70
2023/10/13 03:56:26;;;;;;;18.90;13.75;;;16.40;99.90;;;;;;4959958;28;20083;-68
2023/10/13 03:58:54;;;;;;;22.30;13.90;;;16.40;99.90;;;;;;4955290;28;20039;-69
2023/10/13 04:01:31;;;;;;;24.02;14.80;;;16.30;99.90;;;;;;4961628;28;20086;-69
2023/10/13 04:04:08;;;;;;;23.88;15.88;;;16.30;99.90;;;;;;4962518;28;20047;-69
2023/10/13 04:17:25;;;;;;;23.05;15.63;;;16.40;99.90;;;;;;4959860;28;20059;-71
2023/10/13 04:41:43;;;;;;;24.60;14.55;;;16.30;99.90;;;;;;4958584;28;20047;-70
2023/10/13 04:49:28;;;;;;;24.02;13.98;;;16.40;99.90;;;;;;4959462;28;20056;-69
2023/10/13 04:52:01;;;;;;;21.58;14.85;;;16.30;99.90;;;;;;4943519;28;20130;-69
2023/10/13 04:54:45;;;;;;;24.80;15.43;;;16.30;99.90;;;;;;4945644;28;20062;-69
2023/10/13 05:51:43;;;;;;;10.57;7.05;;;16.20;99.90;;;;;;4962620;28;20055;-71
2023/10/13 06:29:35;;;;;;;6.93;4.63;;;16.00;99.90;;;;;;4942548;29;20058;-72
2023/10/13 06:32:01;;;;;;;6.28;4.63;;;16.00;99.90;;;;;;4943592;29;20705;-69
2023/10/13 06:35:31;;;;;;;7.30;4.93;;;16.00;99.90;;;;;;4936962;29;20052;-71
2023/10/13 06:37:26;;;;;;;8.45;5.30;;;15.90;99.90;;;;;;4928037;29;20063;-70
2023/10/13 06:39:56;;;;;;;8.65;5.78;;;16.00;99.90;;;;;;4942979;29;20582;-70
2023/10/13 06:42:27;;;;;;;7.95;4.43;;;15.90;99.90;;;;;;4944905;29;20406;-71
2023/10/13 06:44:56;;;;;;;9.30;4.65;;;16.10;99.90;;;;;;4923158;29;20146;-69
2023/10/13 06:47:24;;;;;;;6.45;4.50;;;16.10;99.90;;;;;;4945984;28;20051;-70
2023/10/13 06:49:51;;;;;;;8.02;5.03;;;16.20;99.90;;;;;;4943827;29;20126;-70
2023/10/13 06:52:22;;;;;;;7.28;4.00;;;16.20;99.90;;;;;;4941640;29;20054;-67
2023/10/13 06:54:51;;;;;;;6.63;4.35;;;16.10;99.90;;;;;;4941797;29;20059;-68
2023/10/13 06:57:23;;;;;;;10.93;4.30;;;16.30;99.90;;;;;;4939530;29;20066;-68
2023/10/13 06:59:49;;;;;;;6.72;3.67;;;16.30;99.90;;;;;;4941743;29;20083;-68
2023/10/13 07:02:21;;;;;;;13.15;4.43;;;16.40;99.90;;;;;;4944121;29;20055;-70
2023/10/13 07:05:11;;;;;;;8.18;3.97;;;16.30;99.90;;;;;;4954226;28;20544;-72
2023/10/13 07:07:39;;;;;;;8.35;4.22;;;16.30;99.90;;;;;;4941396;29;20063;-70
2023/10/13 07:10:14;;;;;;;8.05;3.92;;;16.30;99.90;;;;;;4943469;29;20054;-70
2023/10/13 07:12:43;;;;;;;8.57;4.60;;;16.30;99.90;;;;;;4936681;29;20058;-68
2023/10/13 07:15:19;;;;;;;12.48;4.35;;;16.30;99.90;;;;;;4957944;28;20050;-69
2023/10/13 07:17:54;;;;;;;9.40;4.53;;;16.50;99.90;;;;;;4960150;28;20491;-69
2023/10/13 07:20:33;;;;;;;8.27;3.67;;;16.30;99.90;;;;;;4960756;28;20122;-69
2023/10/13 07:23:09;;;;;;;10.30;3.67;;;16.40;99.90;;;;;;4946393;28;20441;-69
2023/10/13 07:25:37;;;;;;;11.85;3.63;;;16.40;99.90;;;;;;4961436;28;20203;-69
2023/10/13 07:28:09;;;;;;;12.20;3.60;;;16.30;99.90;;;;;;4960176;28;20135;-70
2023/10/13 07:31:11;;;;;;;17.48;4.88;;;16.30;99.90;;;;;;4946417;28;20486;-72
2023/10/13 07:33:27;;;;;;;14.55;4.03;;;16.40;99.90;;;;;;4942566;28;20061;-72
2023/10/13 07:36:19;;;;;;;9.18;4.28;;;16.30;99.90;;;;;;4942581;29;20047;-71
2023/10/13 07:38:49;;;;;;;14.68;4.68;;;16.40;99.90;;;;;;4961167;28;20388;-69
2023/10/13 07:41:17;;;;;;;12.73;4.18;;;16.30;99.90;;;;;;4963356;28;20057;-70
2023/10/13 07:43:44;;;;;;;16.98;4.60;;;16.40;99.90;;;;;;4945106;28;20772;-70
2023/10/13 07:46:12;;;;;;;13.88;4.57;;;16.30;99.90;;;;;;4959952;28;20513;-70
2023/10/13 07:48:45;;;;;;;13.50;5.00;;;16.40;99.90;;;;;;4942467;29;20055;-69
2023/10/13 07:51:13;;;;;;;16.52;5.03;;;16.40;99.90;;;;;;4940197;29;20546;-69
2023/10/13 07:53:49;;;;;;;12.43;4.70;;;16.30;99.90;;;;;;4960048;28;20517;-70
2023/10/13 07:56:18;;;;;;;12.73;4.38;;;16.40;99.90;;;;;;4934742;29;20055;-71
2023/10/13 07:59:00;;;;;;;11.48;4.78;;;16.30;99.90;;;;;;4942153;29;20057;-69
2023/10/13 08:01:26;;;;;;;12.18;4.65;;;16.30;99.90;;;;;;4956884;28;20046;-70
2023/10/13 08:04:28;;;;;;;12.98;4.78;;;16.40;99.90;;;;;;4963004;28;20051;-69
2023/10/13 08:06:45;;;;;;;14.43;4.28;;;16.30;99.90;;;;;;4950112;28;20135;-70
2023/10/13 08:09:29;;;;;;;18.63;4.90;;;16.40;99.90;;;;;;4948231;28;20050;-70
2023/10/13 08:11:56;;;;;;;15.98;4.85;;;16.30;99.90;;;;;;4958376;28;20407;-72
2023/10/13 08:14:28;;;;;;;13.90;5.28;;;16.40;99.90;;;;;;4961690;28;20122;-70
2023/10/13 08:16:59;;;;;;;19.88;5.45;;;16.30;99.90;;;;;;4939576;29;20510;-73
2023/10/13 08:19:44;;;;;;;16.10;4.55;;;16.40;99.90;;;;;;4967856;28;20055;-72
2023/10/13 08:48:07;;;;;;;22.23;5.88;;;16.60;99.90;;;;;;4960177;28;20407;-70
2023/10/13 09:07:08;;;;;;;16.83;6.15;;;16.80;99.90;;;;;;4965692;28;20491;-70
2023/10/13 09:12:18;;;;;;;13.52;6.50;;;16.90;99.90;;;;;;4966628;28;20050;-74
2023/10/13 09:14:57;;;;;;;13.77;5.82;;;17.00;99.90;;;;;;4962615;28;20042;-69
2023/10/13 09:17:38;;;;;;;21.13;6.47;;;17.20;99.90;;;;;;4953005;28;20051;-70
2023/10/13 09:25:36;;;;;;;14.25;5.55;;;17.20;99.90;;;;;;4962779;28;20054;-71
2023/10/13 09:28:04;;;;;;;11.90;5.60;;;17.40;99.90;;;;;;4966585;28;20773;-69
2023/10/13 09:30:31;;;;;;;17.90;6.47;;;17.50;99.90;;;;;;4964687;28;20050;-71
2023/10/13 09:33:15;;;;;;;14.57;5.93;;;17.40;99.90;;;;;;4962708;28;20118;-69
2023/10/13 09:35:50;;;;;;;16.05;5.82;;;17.50;99.90;;;;;;4947489;28;20054;-69
2023/10/13 09:38:17;;;;;;;13.95;6.47;;;17.50;99.90;;;;;;4962298;28;20043;-71
2023/10/13 09:41:01;;;;;;;19.73;6.55;;;17.60;99.90;;;;;;4962759;28;20047;-68
2023/10/13 09:43:28;;;;;;;16.63;6.18;;;17.70;99.90;;;;;;4951847;28;20458;-70
2023/10/13 09:46:07;;;;;;;14.00;5.50;;;17.80;99.90;;;;;;4963259;28;20047;-70
2023/10/13 09:48:49;;;;;;;14.25;5.82;;;17.70;99.90;;;;;;4949694;28;20087;-70
2023/10/13 09:51:24;;;;;;;15.45;5.72;;;17.80;99.90;;;;;;4955481;28;20047;-69
2023/10/13 09:54:06;;;;;;;20.17;6.03;;;17.90;99.90;;;;;;4944507;28;20055;-69
2023/10/13 09:56:51;;;;;;;15.80;5.10;;;18.00;99.90;;;;;;4956564;28;20232;-70
2023/10/13 09:59:24;;;;;;;13.40;4.63;;;18.10;99.90;;;;;;4944841;29;20051;-68
2023/10/13 10:01:57;;;;;;;15.43;5.18;;;18.20;99.90;;;;;;4961434;28;20041;-69
2023/10/13 10:04:23;;;;;;;18.80;5.18;;;18.20;99.90;;;;;;4938379;29;20114;-69
2023/10/13 10:06:56;;;;;;;16.20;5.05;;;18.30;99.90;;;;;;4961616;28;20134;-70
2023/10/13 10:09:37;;;;;;;14.73;5.57;;;18.30;99.90;;;;;;4964382;28;20049;-69
2023/10/13 10:12:28;;;;;;;21.15;5.45;;;18.30;99.90;;;;;;4964968;28;20039;-69
2023/10/13 10:15:03;;;;;;;14.50;4.95;;;18.40;99.90;;;;;;4956640;28;20078;-70
2023/10/13 10:17:30;;;;;;;18.67;5.68;;;18.50;99.90;;;;;;4941372;28;20170;-70
2023/10/13 10:19:58;;;;;;;15.13;4.95;;;18.50;99.90;;;;;;4960226;28;20049;-69
2023/10/13 10:22:33;;;;;;;15.15;5.10;;;18.50;99.90;;;;;;4945647;28;20043;-71
2023/10/13 10:25:02;;;;;;;15.25;4.95;;;18.50;99.90;;;;;;4959928;28;20408;-70
2023/10/13 10:27:32;;;;;;;23.38;5.03;;;18.60;99.90;;;;;;4962725;28;20043;-70
2023/10/13 10:29:58;;;;;;;15.27;5.57;;;18.60;99.90;;;;;;4947664;29;20042;-70
2023/10/13 10:32:37;;;;;;;21.65;4.85;;;18.60;99.90;;;;;;4960686;28;20491;-71
2023/10/13 10:35:07;;;;;;;13.30;5.07;;;18.70;99.90;;;;;;4961826;28;20174;-71
2023/10/13 10:37:34;;;;;;;17.42;4.63;;;18.70;99.90;;;;;;4948054;28;20076;-71
2023/10/13 10:40:05;;;;;;;19.33;5.18;;;18.80;99.90;;;;;;4943907;29;20057;-71
2023/10/13 10:42:31;;;;;;;18.17;4.78;;;18.80;99.90;;;;;;4961722;28;20047;-74
2023/10/13 10:45:05;;;;;;;16.52;4.90;;;18.90;99.90;;;;;;4960743;28;20058;-71
2023/10/13 10:47:31;;;;;;;13.18;4.70;;;18.90;99.90;;;;;;4961160;28;20136;-75
2023/10/13 10:50:07;;;;;;;17.75;4.95;;;18.90;99.90;;;;;;4944356;28;20079;-71
2023/10/13 10:52:37;;;;;;;19.10;4.88;;;18.90;99.90;;;;;;4954613;28;20039;-72
2023/10/13 10:55:13;;;;;;;15.65;4.75;;;19.00;99.90;;;;;;4946399;28;20050;-72
2023/10/13 10:57:43;;;;;;;18.10;6.07;;;19.00;99.90;;;;;;4960534;28;20502;-71
2023/10/13 11:00:26;;;;;;;18.35;5.28;;;19.10;99.90;;;;;;4945907;28;20051;-71
2023/10/13 11:02:56;;;;;;;15.30;5.05;;;19.10;99.90;;;;;;4938719;29;20495;-69
2023/10/13 11:05:32;;;;;;;15.52;5.38;;;19.20;99.90;;;;;;4930174;28;20058;-70
2023/10/13 11:07:58;;;;;;;18.65;4.97;;;19.30;99.90;;;;;;4942564;29;20130;-70
2023/10/13 11:10:27;;;;;;;22.42;5.65;;;19.30;99.90;;;;;;4935198;28;20499;-70
2023/10/13 11:13:05;;;;;;;20.50;5.72;;;19.40;99.90;;;;;;4959641;28;20043;-71
2023/10/13 11:15:45;;;;;;;24.98;6.05;;;19.40;99.90;;;;;;4953080;28;20503;-70
2023/10/13 11:18:33;;;;;;;20.83;5.05;;;19.40;99.90;;;;;;4960699;28;20051;-70
2023/10/13 11:20:59;;;;;;;25.75;5.50;;;19.40;99.90;;;;;;4955623;28;20134;-69
2023/10/13 11:23:25;;;;;;;20.23;5.00;;;19.40;99.90;;;;;;4961637;28;20479;-72
2023/10/13 11:25:59;;;;;;;16.23;4.57;;;19.40;99.90;;;;;;4963313;28;20152;-70
2023/10/13 11:28:27;;;;;;;15.80;4.70;;;19.40;99.90;;;;;;4945486;28;20510;-70
2023/10/13 11:30:58;;;;;;;22.50;4.95;;;19.40;99.90;;;;;;4943088;29;20047;-70
2023/10/13 11:33:26;;;;;;;15.60;4.65;;;19.50;99.90;;;;;;4958894;28;20046;-69
2023/10/13 11:38:27;;;;;;;24.05;5.50;;;19.40;99.90;;;;;;4960196;28;20051;-70
2023/10/13 11:46:14;;;;;;;21.58;5.10;;;19.30;99.90;;;;;;4954286;28;20059;-71
2023/10/13 11:48:46;;;;;;;20.02;5.57;;;19.20;99.90;;;;;;4969711;28;20485;-69
2023/10/13 11:51:17;;;;;;;24.50;5.70;;;19.10;99.90;;;;;;4954056;28;20134;-72
2023/10/13 11:53:44;;;;;;;27.05;6.00;;;19.10;99.90;;;;;;4960070;28;20094;-70
2023/10/13 11:56:10;;;;;;;16.40;5.35;;;19.10;99.90;;;;;;4945403;28;20479;-72
2023/10/13 11:58:39;;;;;;;23.92;5.97;;;19.10;99.90;;;;;;4945827;28;20063;-69
2023/10/13 12:11:47;;;;;;;17.23;5.30;;;19.10;99.90;;;;;;4886991;29;20044;-71
2023/10/13 12:14:17;;;;;;;17.15;4.93;;;19.10;99.90;;;;;;4902151;29;20628;-71
2023/10/13 12:16:51;;;;;;;23.52;5.90;;;19.10;99.90;;;;;;4900070;29;20152;-71
2023/10/13 12:19:17;;;;;;;24.05;5.88;;;19.10;99.90;;;;;;4900567;29;20056;-71
2023/10/13 12:21:44;;;;;;;24.00;5.97;;;19.20;99.90;;;;;;4903056;29;20087;-72
2023/10/13 12:24:22;;;;;;;17.15;5.93;;;19.20;99.90;;;;;;4903536;29;20439;-74
2023/10/13 12:26:55;;;;;;;21.33;6.32;;;19.20;99.90;;;;;;4896086;29;20084;-71
2023/10/13 12:29:27;;;;;;;19.25;5.95;;;19.20;99.90;;;;;;4887861;29;20056;-71
2023/10/13 12:32:12;;;;;;;17.80;4.85;;;19.20;99.90;;;;;;4906765;29;20061;-71
2023/10/13 12:37:49;;;;;;;;;;;19.20;99.90;;;;;;4891657;29;20062;-74
2023/10/13 12:49:38;;;;;;;23.03;6.53;;;19.00;99.90;;;;;;4885462;29;20069;-72
2023/10/13 12:51:51;;;;;;;22.10;6.20;;;19.00;99.90;;;;;;4886778;29;20055;-70
2023/10/13 12:54:23;;;;;;;20.20;5.80;;;19.00;99.90;;;;;;4884176;29;20053;-72
2023/10/13 12:56:50;;;;;;;19.92;6.47;;;19.00;99.90;;;;;;4875792;29;20064;-70
2023/10/13 12:59:26;;;;;;;20.73;6.07;;;18.90;99.90;;;;;;4884616;29;20041;-71
2023/10/13 13:01:53;;;;;;;14.45;6.68;;;18.90;99.90;;;;;;4884663;29;20116;-70
2023/10/13 13:04:20;;;;;;;15.98;5.97;;;18.90;99.90;;;;;;4888734;29;20048;-70
2023/10/13 13:06:53;;;;;;;15.63;6.07;;;18.80;99.90;;;;;;4880323;29;20516;-70
2023/10/13 13:09:25;;;;;;;18.70;6.90;;;18.80;99.90;;;;;;4887942;29;20064;-72
2023/10/13 13:11:57;;;;;;;20.27;6.95;;;18.80;99.90;;;;;;4881644;29;20045;-72
2023/10/13 13:14:28;;;;;;;16.23;6.72;;;18.70;99.90;;;;;;4883225;29;20088;-72
2023/10/13 13:17:07;;;;;;;19.40;7.55;;;18.60;99.90;;;;;;4917059;28;20074;-71
2023/10/13 13:19:36;;;;;;;16.98;7.07;;;18.60;99.90;;;;;;4965552;28;20058;-69
2023/10/13 13:22:03;;;;;;;22.85;7.10;;;18.60;99.90;;;;;;4965734;28;20035;-70
2023/10/13 13:24:29;;;;;;;21.13;6.95;;;18.60;99.90;;;;;;4963916;28;20109;-74
2023/10/13 13:27:05;;;;;;;21.30;6.97;;;18.50;99.90;;;;;;4962619;28;20442;-72
2023/10/13 13:29:30;;;;;;;24.73;7.60;;;18.50;99.90;;;;;;4963471;28;20051;-71
2023/10/13 13:31:56;;;;;;;19.00;7.40;;;18.50;99.90;;;;;;4965811;28;20081;-72
2023/10/13 13:34:22;;;;;;;24.63;7.35;;;18.50;99.90;;;;;;4965474;28;20058;-71
2023/10/13 13:36:52;;;;;;;18.80;6.60;;;18.40;99.90;;;;;;4923826;28;20125;-73
2023/10/13 13:39:29;;;;;;;22.30;7.07;;;18.40;99.90;;;;;;4967253;28;20062;-74
2023/10/13 13:41:58;;;;;;;23.88;6.93;;;18.40;99.90;;;;;;4964866;28;20062;-71
2023/10/13 13:44:29;;;;;;;24.23;7.05;;;18.40;99.90;;;;;;4941983;29;20402;-71
2023/10/13 13:46:57;;;;;;;26.50;7.25;;;18.40;99.90;;;;;;4963899;28;20055;-70
2023/10/13 13:49:39;;;;;;;20.92;6.43;;;18.40;99.90;;;;;;4964996;28;20046;-73
2023/10/13 13:52:05;;;;;;;19.05;6.80;;;18.40;99.90;;;;;;4962131;28;20050;-70
2023/10/13 13:54:31;;;;;;;20.13;6.97;;;18.40;99.90;;;;;;4944219;29;20062;-71
2023/10/13 13:56:57;;;;;;;20.50;6.57;;;18.40;99.90;;;;;;4962787;28;20059;-73
2023/10/13 13:59:23;;;;;;;21.70;7.13;;;18.40;99.90;;;;;;4964782;28;20054;-74
2023/10/13 14:01:48;;;;;;;19.42;8.23;;;18.40;99.90;;;;;;4964931;28;20190;-73
2023/10/13 14:04:17;;;;;;;22.55;9.65;;;18.40;99.90;;;;;;4958362;28;20122;-71
2023/10/13 14:06:44;;;;;;;23.75;7.93;;;18.40;99.90;;;;;;4964867;28;20186;-73
2023/10/13 14:09:15;;;;;;;19.35;6.80;;;18.40;99.90;;;;;;4963493;28;20051;-71
2023/10/13 14:16:51;;;;;;;28.45;7.88;;;18.40;99.90;;;;;;4961531;28;20502;-70
2023/10/13 14:19:26;;;;;;;17.40;6.70;;;18.40;99.90;;;;;;4962061;28;20066;-73
2023/10/13 14:21:53;;;;;;;17.90;7.25;;;18.40;99.90;;;;;;4964846;28;20474;-74
2023/10/13 14:24:27;;;;;;;25.80;7.30;;;18.40;99.90;;;;;;4964770;28;20143;-71
2023/10/13 14:26:58;;;;;;;18.73;6.63;;;18.40;99.90;;;;;;4961403;28;20494;-76
2023/10/13 14:29:27;;;;;;;23.73;6.60;;;18.40;99.90;;;;;;4961894;28;20104;-74
2023/10/13 14:31:53;;;;;;;16.15;6.32;;;18.40;99.90;;;;;;4944397;29;20499;-73
2023/10/13 14:34:21;;;;;;;23.27;7.18;;;18.50;99.90;;;;;;4943908;29;20055;-71
2023/10/13 14:36:48;;;;;;;18.08;6.10;;;18.40;99.90;;;;;;4963603;28;20502;-76
2023/10/13 14:39:14;;;;;;;24.65;6.75;;;18.50;99.90;;;;;;4963426;28;20126;-71
2023/10/13 14:41:40;;;;;;;19.77;7.00;;;18.50;99.90;;;;;;4971055;28;20050;-70
2023/10/13 14:44:06;;;;;;;22.52;7.32;;;18.50;99.90;;;;;;4925282;28;20053;-70
2023/10/13 14:46:35;;;;;;;20.63;6.22;;;18.50;99.90;;;;;;4948254;29;20055;-71
2023/10/13 14:49:02;;;;;;;20.25;6.45;;;18.50;99.90;;;;;;4929937;28;20051;-71
2023/10/13 14:51:29;;;;;;;19.75;6.75;;;18.50;99.90;;;;;;4942413;29;20415;-74
2023/10/13 14:53:59;;;;;;;25.08;7.43;;;18.40;99.90;;;;;;4961683;28;20070;-75
2023/10/13 14:56:26;;;;;;;25.02;6.70;;;18.50;99.90;;;;;;4954724;28;20106;-70
2023/10/13 14:58:52;;;;;;;17.48;6.57;;;18.50;99.90;;;;;;4961084;28;20043;-70
2023/10/13 15:01:20;;;;;;;20.05;6.60;;;18.50;99.90;;;;;;4956397;28;20047;-71
2023/10/13 15:03:50;;;;;;;21.60;7.20;;;18.50;99.90;;;;;;4961093;28;20047;-70
2023/10/13 15:06:17;;;;;;;30.05;6.50;;;18.60;99.90;;;;;;4962285;28;20058;-70
2023/10/13 15:08:47;;;;;;;14.18;6.07;;;18.60;99.90;;;;;;4963727;28;20078;-73
2023/10/13 15:11:18;;;;;;;17.50;6.35;;;18.60;99.90;;;;;;4945106;28;20043;-76
2023/10/13 15:13:44;;;;;;;22.73;6.85;;;18.60;99.90;;;;;;4960740;28;20050;-71
2023/10/13 15:16:17;;;;;;;20.90;5.75;;;18.60;99.90;;;;;;4960371;28;20046;-77
2023/10/13 15:18:45;;;;;;;19.05;6.18;;;18.50;99.90;;;;;;4958078;28;20651;-74
2023/10/13 15:21:10;;;;;;;19.38;7.13;;;18.50;99.90;;;;;;4942728;29;20127;-70
2023/10/13 15:23:45;;;;;;;18.95;6.20;;;18.50;99.90;;;;;;4962666;28;20059;-73
2023/10/13 15:26:13;;;;;;;;;;;18.40;99.90;;;;;;4965137;28;20047;-70
2023/10/13 15:28:48;;;;;;;19.17;6.18;;;18.40;99.90;;;;;;4963121;28;19985;-70
2023/10/13 15:31:25;;;;;;;;;;;18.30;99.90;;;;;;4959235;28;20538;-70
2023/10/13 15:33:54;;;;;;;16.50;6.25;;;18.30;99.90;;;;;;4944301;28;19933;-70
2023/10/13 15:36:23;;;;;;;21.27;6.57;;;18.30;99.90;;;;;;4956065;28;20058;-71
2023/10/13 15:38:51;;;;;;;18.50;6.88;;;18.30;99.90;;;;;;4945354;28;20086;-70
2023/10/13 15:41:28;;;;;;;22.10;6.85;;;18.30;99.90;;;;;;4963528;28;20128;-78
2023/10/13 15:43:55;;;;;;;15.65;6.97;;;18.20;99.90;;;;;;4943991;28;20046;-71
2023/10/13 15:46:22;;;;;;;17.80;7.50;;;18.20;99.90;;;;;;4942309;29;20087;-73
2023/10/13 15:48:52;;;;;;;19.33;7.95;;;18.20;99.90;;;;;;4960847;28;20505;-74
2023/10/13 15:51:19;;;;;;;22.88;8.27;;;18.10;99.90;;;;;;4962900;28;20054;-72
2023/10/13 15:53:48;;;;;;;22.55;7.35;;;18.10;99.90;;;;;;4960078;28;20089;-71
2023/10/13 15:56:15;;;;;;;25.00;8.52;;;18.10;99.90;;;;;;4952092;28;20058;-72
2023/10/13 15:58:45;;;;;;;18.67;8.15;;;18.10;99.90;;;;;;4959241;28;20122;-68
2023/10/13 16:01:14;;;;;;;22.75;7.90;;;18.00;99.90;;;;;;4964528;28;20455;-70
2023/10/13 16:03:43;;;;;;;17.63;8.18;;;18.00;99.90;;;;;;4965506;28;20109;-70
2023/10/13 16:06:11;;;;;;;22.17;7.50;;;18.00;99.90;;;;;;4961353;28;20509;-70
2023/10/13 16:08:38;;;;;;;17.65;7.40;;;18.00;99.90;;;;;;4945952;28;20066;-70
2023/10/13 16:11:07;;;;;;;22.55;7.63;;;17.90;99.90;;;;;;4963303;28;20058;-71
2023/10/13 16:13:35;;;;;;;21.27;7.30;;;17.90;99.90;;;;;;4960372;28;20046;-71
2023/10/13 16:16:04;;;;;;;26.65;7.03;;;18.00;99.90;;;;;;4962881;28;20070;-72
2023/10/13 16:18:33;;;;;;;21.27;7.75;;;18.00;99.90;;;;;;4960635;28;20047;-70
2023/10/13 16:21:00;;;;;;;29.92;7.65;;;18.00;99.90;;;;;;4943002;29;20047;-71
2023/10/13 16:23:27;;;;;;;16.60;6.55;;;18.00;99.90;;;;;;4961579;28;20051;-71
2023/10/13 16:25:56;;;;;;;18.67;6.85;;;18.00;99.90;;;;;;4963800;28;20070;-74
2023/10/13 16:28:22;;;;;;;18.70;7.25;;;18.00;99.90;;;;;;4963115;28;20045;-72
2023/10/13 16:30:49;;;;;;;16.83;6.15;;;18.00;99.90;;;;;;4942845;29;20051;-73
2023/10/13 16:33:14;;;;;;;15.65;5.85;;;18.00;99.90;;;;;;4960017;28;20087;-70
2023/10/13 16:35:45;;;;;;;14.50;5.45;;;18.00;99.90;;;;;;4959352;28;20047;-74
2023/10/13 16:38:11;;;;;;;19.23;6.07;;;17.90;99.90;;;;;;4946021;28;20121;-73